Strona główna
METAR-TAF:

METAR-TAF

Lotnisko :

Auckland, Nowa Zelandia

Port lotniczy Auckland

Szerokość geograficzna: 37-01S, Długość geograficzna: 174-48E, wysokość: 7 m

Aktualna obserwacja pogody

Raport powstał 22 minut temu, godzina 05:00 UTC
Wiatr 14 kt od północny wschód
Temperatura 25°C
Wilgotność 69%
Ciśnienie 1015 hPa
Widzialność 10 km lub więcej

METAR: NZAA 190500Z AUTO 04014KT 9999 NCD 25/19 Q1015 NOSIG

czas: 18:22 (05:22 UTC)

Prognoza

Raport powstał 6 godziny i 18 minut temu, godzina 23:04 UTC
Prognoza ważna od 19 godzina 00 UTC do 20 godzina 00 UTC
Wiatr 15 kt od północno-północny wschód
Widzialność 10 km lub więcej
Przerywane chmury na wysokości 2000 ft
słaby przelotny opad deszczu
Przejściowo
od 19 godzina 12 UTC do 19 godzina 20 UTC
Przerywane chmury na wysokości 800 ft

TAF: NZAA 182304Z 1900/2000 02015KT 9999 -SHRA BKN020 TEMPO 1912/1920 BKN008

Obserwacja i prognoza pogody dla ponad 4000 lotnisk (raport METAR i TAF).

Dostępne stacje oznaczono żółtymi i czerwonymi punktami na mapie.

Najedź kursorem aby zobaczyć nazwę stacji.

Kliknij aby zobaczyć obserwacje i prognozy pogody.

Aby zmienić mapę: kliknij na zielony przycisk z czarnym krzyżykiem, aby powiększyć; na zielony przycisk z myślnikiem, aby pomniejszyć; na zielone strzałki, aby przejść do map sąsiednich.


METAR-TAF: